Time;durP1;ratioP1;P1;durP2;ratioP2;P2;SDS_P1;SDS_P2;PMS_P1;PMS_P2;Temp;Humidity;BMP_temperature;BMP_pressure;BME280_temperature;BME280_humidity;BME280_pressure;Samples;Min_cycle;Max_cycle;Signal;HPM_P1;HPM_P2
2023/08/16 01:06:15;;;;;;;;;2.00;2.00;;;;;;;;5098004;28;13332;-96
2023/08/16 01:12:17;;;;;;;;;2.00;2.00;;;;;;;;5071973;28;28822;-96
2023/08/16 01:15:10;;;;;;;;;3.00;3.00;;;;;;;;5098661;28;11482;-96
2023/08/16 01:20:51;;;;;;;;;2.67;2.67;;;;;;;;5038219;28;29799;-97
2023/08/16 01:23:45;;;;;;;;;3.00;3.00;;;;;;;;5053900;28;27947;-96
2023/08/16 01:26:37;;;;;;;;;1.67;1.67;;;;;;;;5027575;28;28338;-96
2023/08/16 01:29:47;;;;;;;;;;;;;;;;;;;;;
2023/08/16 01:32:43;;;;;;;;;;;;;;;;;;;;;
2023/08/16 01:35:26;;;;;;;;;;;;;;;;;;;;;
2023/08/16 01:38:30;;;;;;;;;2.33;2.33;;;;;;;;5061658;28;57135;-96
2023/08/16 01:41:24;;;;;;;;;2.33;2.33;;;;;;;;5060230;28;27877;-96
2023/08/16 01:44:30;;;;;;;;;;;;;;;;;;;;;
2023/08/16 01:47:20;;;;;;;;;2.00;2.00;;;;;;;;5011904;28;57727;-96
2023/08/16 01:50:19;;;;;;;;;;;;;;;;;;;;;
2023/08/16 01:53:18;;;;;;;;;4.33;2.33;;;;;;;;5080610;28;27946;-96
2023/08/16 01:56:31;;;;;;;;;;;;;;;;;;;;;
2023/08/16 01:59:25;;;;;;;;;3.00;3.00;;;;;;;;5064989;28;27871;-96
2023/08/16 02:02:44;;;;;;;;;;;;;;;;;;;;;
2023/08/16 02:05:44;;;;;;;;;;;;;;;;;;;;;
2023/08/16 02:11:45;;;;;;;;;;;;;;;;;;;;;
2023/08/16 02:14:29;;;;;;;;;2.00;2.00;;;;;;;;5022880;28;56935;-96
2023/08/16 02:17:18;;;;;;;;;6.00;4.00;;;;;;;;5050536;28;27840;-96
2023/08/16 02:54:28;;;;;;;;;4.33;4.33;;;;;;;;5064259;28;28101;-96
2023/08/16 02:57:15;;;;;;;;;;;;;;;;;;;;;
2023/08/16 03:00:17;;;;;;;;;3.00;3.00;;;;;;;;5063252;28;44630;-96
2023/08/16 03:02:57;;;;;;;;;3.50;3.50;;;;;;;;4978054;28;10166;-96
2023/08/16 03:08:43;;;;;;;;;2.67;2.67;;;;;;;;5021693;28;27868;-96
2023/08/16 03:11:26;;;;;;;;;5.00;5.00;;;;;;;;5056846;28;27915;-96
2023/08/16 03:14:15;;;;;;;;;3.67;3.67;;;;;;;;5059906;28;27892;-96
2023/08/16 03:17:11;;;;;;;;;5.00;5.00;;;;;;;;5037045;28;28366;-96
2023/08/16 03:20:05;;;;;;;;;3.00;3.00;;;;;;;;5034429;28;27953;-96
2023/08/16 03:25:51;;;;;;;;;;;;;;;;;;;;;
2023/08/16 03:31:47;;;;;;;;;;;;;;;;;;;;;
2023/08/16 03:34:32;;;;;;;;;;;;;;;;;;;;;
2023/08/16 03:37:05;;;;;;;;;2.67;2.67;;;;;;;;5054927;28;52350;-96
2023/08/16 03:39:47;;;;;;;;;;;;;;;;;;;;;
2023/08/16 03:42:28;;;;;;;;;;;;;;;;;;;;;
2023/08/16 03:45:04;;;;;;;;;5.67;4.33;;;;;;;;5055569;28;55450;-96
2023/08/16 03:47:41;;;;;;;;;3.00;3.00;;;;;;;;5037072;28;28322;-96
2023/08/16 03:50:25;;;;;;;;;;;;;;;;;;;;;
2023/08/16 03:53:19;;;;;;;;;;;;;;;;;;;;;
2023/08/16 04:01:53;;;;;;;;;3.67;3.67;;;;;;;;4978538;28;28408;-96
2023/08/16 04:04:34;;;;;;;;;;;;;;;;;;;;;
2023/08/16 04:07:06;;;;;;;;;3.00;3.00;;;;;;;;4970282;28;53932;-96
2023/08/16 04:10:00;;;;;;;;;2.67;2.67;;;;;;;;4979061;28;27947;-96
2023/08/16 04:12:48;;;;;;;;;4.00;4.00;;;;;;;;4976878;28;28277;-96
2023/08/16 04:15:51;;;;;;;;;4.00;4.00;;;;;;;;4977008;28;27899;-96
2023/08/16 04:18:36;;;;;;;;;3.33;3.33;;;;;;;;4983769;28;28386;-96
2023/08/16 04:21:07;;;;;;;;;5.67;5.67;;;;;;;;5040839;28;27940;-96
2023/08/16 04:23:46;;;;;;;;;8.00;8.00;;;;;;;;5024391;28;28431;-96
2023/08/16 04:26:44;;;;;;;;;6.33;6.33;;;;;;;;5059062;28;27749;-96
2023/08/16 04:29:20;;;;;;;;;5.00;5.00;;;;;;;;5049049;28;27793;-96
2023/08/16 04:32:20;;;;;;;;;;;;;;;;;;;;;
2023/08/16 04:35:10;;;;;;;;;;;;;;;;;;;;;
2023/08/16 04:37:59;;;;;;;;;7.00;6.33;;;;;;;;5059634;28;57394;-96
2023/08/16 04:40:45;;;;;;;;;6.00;6.00;;;;;;;;5033034;28;28314;-96
2023/08/16 04:43:45;;;;;;;;;4.33;4.33;;;;;;;;5023150;28;27889;-96
2023/08/16 04:46:38;;;;;;;;;6.00;6.00;;;;;;;;5020002;28;28785;-96
2023/08/16 04:49:42;;;;;;;;;4.00;4.00;;;;;;;;5041511;28;27865;-96
2023/08/16 04:52:41;;;;;;;;;4.33;4.33;;;;;;;;5055822;28;27876;-96
2023/08/16 04:59:27;;;;;;;;;6.00;6.00;;;;;;;;4974929;28;28824;-96
2023/08/16 05:01:35;;;;;;;;;3.33;3.33;;;;;;;;4980622;28;27767;-96
2023/08/16 05:04:12;;;;;;;;;4.00;4.00;;;;;;;;5049715;28;28417;-96
2023/08/16 05:07:34;;;;;;;;;;;;;;;;;;;;;
2023/08/16 05:09:39;;;;;;;;;6.00;6.00;;;;;;;;5005818;28;46673;-96
2023/08/16 05:12:53;;;;;;;;;;;;;;;;;;;;;
2023/08/16 05:15:30;;;;;;;;;7.00;7.00;;;;;;;;5032648;28;68615;-96
2023/08/16 05:21:05;;;;;;;;;6.00;6.00;;;;;;;;5039967;28;46579;-96
2023/08/16 05:23:36;;;;;;;;;6.67;6.67;;;;;;;;5040640;28;45295;-96
2023/08/16 05:28:58;;;;;;;;;4.00;4.00;;;;;;;;5009984;28;44854;-96
2023/08/16 05:31:59;;;;;;;;;4.00;4.00;;;;;;;;5019758;28;46694;-96
2023/08/16 05:34:53;;;;;;;;;6.33;6.33;;;;;;;;5024959;28;44838;-96
2023/08/16 05:37:37;;;;;;;;;7.00;7.00;;;;;;;;5030444;28;45234;-96
2023/08/16 05:40:42;;;;;;;;;5.67;5.67;;;;;;;;5024452;28;44895;-96
2023/08/16 05:43:22;;;;;;;;;4.33;4.33;;;;;;;;5040334;28;45556;-96
2023/08/16 05:46:12;;;;;;;;;6.67;6.67;;;;;;;;5031980;28;44768;-96
2023/08/16 05:49:07;;;;;;;;;;;;;;;;;;;;;
2023/08/16 05:52:20;;;;;;;;;;;;;;;;;;;;;
2023/08/16 05:55:37;;;;;;;;;6.33;6.33;;;;;;;;4935841;28;45453;-96
2023/08/16 05:58:37;;;;;;;;;;;;;;;;;;;;;
2023/08/16 06:01:18;;;;;;;;;6.33;6.33;;;;;;;;4934061;28;44839;-96
2023/08/16 06:04:12;;;;;;;;;6.00;6.00;;;;;;;;4987019;28;44911;-96
2023/08/16 06:06:56;;;;;;;;;7.00;7.00;;;;;;;;4908852;28;45565;-96
2023/08/16 06:09:58;;;;;;;;;;;;;;;;;;;;;
2023/08/16 06:12:31;;;;;;;;;6.67;6.33;;;;;;;;4998938;28;68077;-96
2023/08/16 06:15:29;;;;;;;;;5.00;4.00;;;;;;;;4981592;28;45422;-96
2023/08/16 06:17:57;;;;;;;;;4.00;4.00;;;;;;;;4988474;28;47032;-96
2023/08/16 06:20:42;;;;;;;;;5.33;5.33;;;;;;;;4983152;28;45262;-96
2023/08/16 06:23:21;;;;;;;;;7.00;7.00;;;;;;;;4999579;28;44815;-96
2023/08/16 06:32:24;;;;;;;;;;;;;;;;;;;;;
2023/08/16 06:35:54;;;;;;;;;;;;;;;;;;;;;
2023/08/16 06:45:21;;;;;;;;;;;;;;;;;;;;;
2023/08/16 06:50:38;;;;;;;;;7.00;7.00;;;;;;;;4982501;25;47105;-96
2023/08/16 06:53:03;;;;;;;;;5.33;5.33;;;;;;;;5030670;28;45503;-96
2023/08/16 06:55:29;;;;;;;;;5.00;5.00;;;;;;;;5040010;28;45465;-96
2023/08/16 06:57:56;;;;;;;;;4.00;4.00;;;;;;;;5039175;28;45707;-96
2023/08/16 07:00:22;;;;;;;;;4.67;4.67;;;;;;;;5044633;28;45252;-96
2023/08/16 07:06:18;;;;;;;;;4.33;4.33;;;;;;;;5883971;22;46185;-95
2023/08/16 07:08:48;;;;;;;;;4.67;4.67;;;;;;;;4971271;28;28384;-96
2023/08/16 07:11:42;;;;;;;;;4.67;4.67;;;;;;;;5041340;28;28850;-95
2023/08/16 07:14:21;;;;;;;;;;;;;;;;;;;;;
2023/08/16 07:16:51;;;;;;;;;7.33;7.33;;;;;;;;5071019;28;56192;-96
2023/08/16 07:19:19;;;;;;;;;5.67;5.67;;;;;;;;5060436;28;28495;-96
2023/08/16 07:21:51;;;;;;;;;5.00;5.00;;;;;;;;5053440;28;44949;-96
2023/08/16 07:24:26;;;;;;;;;5.67;5.67;;;;;;;;5047097;28;30090;-96
2023/08/16 07:26:55;;;;;;;;;6.67;6.67;;;;;;;;5054753;28;29981;-96
2023/08/16 07:32:07;;;;;;;;;;;;;;;;;;;;;
2023/08/16 08:25:22;;;;;;;;;4.00;4.00;;;;;;;;5729636;22;45932;-94
2023/08/16 08:36:08;;;;;;;;;4.33;4.33;;;;;;;;5243808;22;45584;-95
2023/08/16 08:38:36;;;;;;;;;4.67;4.67;;;;;;;;5025671;28;45690;-96
2023/08/16 08:41:23;;;;;;;;;6.00;6.00;;;;;;;;5034742;28;44920;-96
2023/08/16 08:43:48;;;;;;;;;4.00;4.00;;;;;;;;5026069;28;45474;-96
2023/08/16 08:46:59;;;;;;;;;4.00;4.00;;;;;;;;5028895;28;45367;-96
2023/08/16 08:49:29;;;;;;;;;3.00;3.00;;;;;;;;4930335;28;47699;-96
2023/08/16 08:51:55;;;;;;;;;3.33;3.33;;;;;;;;4937847;28;45606;-94
2023/08/16 08:54:20;;;;;;;;;3.33;3.33;;;;;;;;4969183;28;45482;-95
2023/08/16 08:56:55;;;;;;;;;2.00;2.00;;;;;;;;5025870;28;45538;-96
2023/08/16 08:59:23;;;;;;;;;2.00;2.00;;;;;;;;5023933;28;45444;-96
2023/08/16 09:01:49;;;;;;;;;1.33;1.33;;;;;;;;5005482;28;45388;-96
2023/08/16 09:04:27;;;;;;;;;;;;;;;;;;;;;
2023/08/16 09:07:03;;;;;;;;;;;;;;;;;;;;;
2023/08/16 09:09:29;;;;;;;;;2.00;2.00;;;;;;;;5027375;28;75620;-96
2023/08/16 09:12:01;;;;;;;;;2.00;2.00;;;;;;;;5023226;28;45493;-96
2023/08/16 09:14:27;;;;;;;;;2.00;2.00;;;;;;;;5006316;28;45509;-96
2023/08/16 09:17:10;;;;;;;;;5.00;5.00;;;;;;;;5006784;28;46129;-96
2023/08/16 09:19:47;;;;;;;;;2.00;2.00;;;;;;;;5004563;28;47502;-96
2023/08/16 09:22:18;;;;;;;;;1.00;1.00;;;;;;;;5024558;28;45205;-96
2023/08/16 09:24:45;;;;;;;;;2.33;2.33;;;;;;;;5004345;28;45353;-96
2023/08/16 09:27:11;;;;;;;;;1.00;1.00;;;;;;;;5027241;28;45244;-96
2023/08/16 09:30:01;;;;;;;;;2.33;2.33;;;;;;;;5031751;28;46356;-96
2023/08/16 09:32:47;;;;;;;;;3.00;3.00;;;;;;;;5028560;28;45287;-96
2023/08/16 09:38:14;;;;;;;;;;;;;;;;;;;;;
2023/08/16 09:41:09;;;;;;;;;1.00;1.00;;;;;;;;5031361;28;75502;-96
2023/08/16 09:43:43;;;;;;;;;0.00;0.00;;;;;;;;5011648;28;44831;-96
2023/08/16 09:46:09;;;;;;;;;1.00;1.00;;;;;;;;5021006;28;45202;-93
2023/08/16 09:48:35;;;;;;;;;1.67;1.67;;;;;;;;5039919;28;44984;-96
2023/08/16 09:51:21;;;;;;;;;2.00;2.00;;;;;;;;5006873;28;47334;-96
2023/08/16 09:53:54;;;;;;;;;2.00;2.00;;;;;;;;5037627;28;45316;-96
2023/08/16 09:56:25;;;;;;;;;1.67;1.67;;;;;;;;5022413;28;45465;-96
2023/08/16 10:01:45;;;;;;;;;2.00;2.00;;;;;;;;5031018;28;46479;-96
2023/08/16 10:04:11;;;;;;;;;1.00;1.00;;;;;;;;5008883;28;45258;-96
2023/08/16 10:06:36;;;;;;;;;0.00;0.00;;;;;;;;5005169;28;45271;-96
2023/08/16 10:11:58;;;;;;;;;1.33;1.33;;;;;;;;5015593;28;46811;-96
2023/08/16 10:14:31;;;;;;;;;1.00;1.00;;;;;;;;5020732;28;45474;-96
2023/08/16 10:17:00;;;;;;;;;1.00;1.00;;;;;;;;5006431;28;45316;-96
2023/08/16 10:19:28;;;;;;;;;2.00;2.00;;;;;;;;5021626;28;45538;-96
2023/08/16 10:21:53;;;;;;;;;1.00;1.00;;;;;;;;5021257;28;48123;-96
2023/08/16 10:24:27;;;;;;;;;0.00;0.00;;;;;;;;5013375;28;45289;-96
2023/08/16 10:27:17;;;;;;;;;0.67;0.67;;;;;;;;5018304;28;45414;-96
2023/08/16 10:29:45;;;;;;;;;2.00;2.00;;;;;;;;5015535;28;45202;-96
2023/08/16 10:32:13;;;;;;;;;1.00;1.00;;;;;;;;5039625;28;47050;-96
2023/08/16 10:34:39;;;;;;;;;1.00;1.00;;;;;;;;5041847;28;45474;-96
2023/08/16 10:37:06;;;;;;;;;0.33;0.33;;;;;;;;5027722;28;45748;-96
2023/08/16 10:39:31;;;;;;;;;1.00;1.00;;;;;;;;5019998;28;45316;-96
2023/08/16 10:42:05;;;;;;;;;1.00;1.00;;;;;;;;5007109;28;48104;-96
2023/08/16 10:44:35;;;;;;;;;0.00;0.00;;;;;;;;5012889;28;45436;-96
2023/08/16 10:47:01;;;;;;;;;2.33;1.00;;;;;;;;5041626;28;45407;-96
2023/08/16 10:49:36;;;;;;;;;1.33;1.33;;;;;;;;5008668;28;45511;-95
2023/08/16 10:52:06;;;;;;;;;2.00;2.00;;;;;;;;5029320;28;46552;-96
2023/08/16 11:21:51;;;;;;;;;2.00;2.00;;;;;;;;6038159;22;46193;-96
2023/08/16 11:24:17;;;;;;;;;1.67;1.67;;;;;;;;5061584;28;45248;-96
2023/08/16 11:26:42;;;;;;;;;2.00;2.00;;;;;;;;5061499;28;45723;-96
2023/08/16 11:29:08;;;;;;;;;1.00;1.00;;;;;;;;5045853;28;46361;-96
2023/08/16 11:31:44;;;;;;;;;;;;;;;;;;;;;
2023/08/16 11:34:10;;;;;;;;;3.00;3.00;;;;;;;;5054914;28;75631;-96
2023/08/16 11:36:50;;;;;;;;;;;;;;;;;;;;;
2023/08/16 11:39:16;;;;;;;;;2.33;2.33;;;;;;;;5046368;28;68821;-96
2023/08/16 11:41:41;;;;;;;;;2.67;2.00;;;;;;;;5062179;28;45499;-96
2023/08/16 11:44:06;;;;;;;;;2.00;2.00;;;;;;;;5035447;28;47415;-96
2023/08/16 11:46:49;;;;;;;;;1.00;1.00;;;;;;;;5045166;28;45162;-96
2023/08/16 11:49:24;;;;;;;;;2.00;2.00;;;;;;;;5045087;28;45423;-96
2023/08/16 11:51:50;;;;;;;;;1.00;1.00;;;;;;;;5063984;28;45177;-96
2023/08/16 11:54:25;;;;;;;;;1.00;1.00;;;;;;;;5063669;28;45449;-96
2023/08/16 11:56:51;;;;;;;;;1.00;1.00;;;;;;;;5042629;28;45265;-96
2023/08/16 11:59:29;;;;;;;;;2.00;2.00;;;;;;;;5063373;28;45295;-96
2023/08/16 12:01:55;;;;;;;;;1.00;1.00;;;;;;;;5038458;28;45193;-96
2023/08/16 12:04:23;;;;;;;;;1.00;1.00;;;;;;;;5036667;28;46086;-96
2023/08/16 12:06:48;;;;;;;;;1.33;1.33;;;;;;;;5042473;28;45450;-96
2023/08/16 12:09:17;;;;;;;;;1.00;1.00;;;;;;;;5045888;28;45348;-96
2023/08/16 12:11:42;;;;;;;;;1.00;1.00;;;;;;;;5046222;28;45352;-96
2023/08/16 12:14:07;;;;;;;;;1.33;1.33;;;;;;;;5055914;28;46441;-96
2023/08/16 12:16:32;;;;;;;;;1.00;1.00;;;;;;;;5056631;28;45525;-96
2023/08/16 12:19:01;;;;;;;;;1.33;1.33;;;;;;;;5052979;28;45203;-96
2023/08/16 12:21:26;;;;;;;;;1.00;1.00;;;;;;;;5038899;28;45439;-95
2023/08/16 12:23:51;;;;;;;;;1.00;1.00;;;;;;;;5044437;28;47789;-95
2023/08/16 12:26:17;;;;;;;;;0.00;0.00;;;;;;;;5059196;28;46020;-95
2023/08/16 12:28:42;;;;;;;;;0.00;0.00;;;;;;;;5074494;28;45424;-96
2023/08/16 12:31:08;;;;;;;;;1.33;1.33;;;;;;;;5084227;28;45357;-96
2023/08/16 12:33:33;;;;;;;;;1.00;1.00;;;;;;;;5080521;28;45517;-95
2023/08/16 12:35:58;;;;;;;;;1.00;1.00;;;;;;;;5079707;28;45237;-96
2023/08/16 12:38:24;;;;;;;;;1.00;1.00;;;;;;;;5074770;28;45378;-96
2023/08/16 12:40:49;;;;;;;;;1.00;1.00;;;;;;;;5080701;28;45633;-96
2023/08/16 12:43:15;;;;;;;;;1.00;1.00;;;;;;;;5065794;28;46945;-96
2023/08/16 12:45:41;;;;;;;;;0.00;0.00;;;;;;;;5063080;28;47176;-96
2023/08/16 12:48:07;;;;;;;;;1.00;1.00;;;;;;;;5049170;28;45490;-96
2023/08/16 12:50:32;;;;;;;;;1.00;1.00;;;;;;;;5066735;28;45420;-96
2023/08/16 12:52:58;;;;;;;;;1.00;1.00;;;;;;;;5078921;28;46162;-96
2023/08/16 12:55:23;;;;;;;;;0.00;0.00;;;;;;;;5060856;28;45621;-96
2023/08/16 12:57:48;;;;;;;;;1.00;1.00;;;;;;;;5072431;28;45359;-96
2023/08/16 13:00:14;;;;;;;;;2.00;2.00;;;;;;;;5077006;28;45200;-96
2023/08/16 13:02:39;;;;;;;;;1.00;1.00;;;;;;;;5045030;28;46386;-96
2023/08/16 13:05:07;;;;;;;;;1.00;1.00;;;;;;;;5059219;28;45471;-96
2023/08/16 13:07:34;;;;;;;;;2.00;2.00;;;;;;;;5063428;28;45424;-96
2023/08/16 13:09:59;;;;;;;;;1.00;1.00;;;;;;;;5065385;28;45427;-96
2023/08/16 13:12:25;;;;;;;;;1.67;1.67;;;;;;;;5064990;28;46085;-96
2023/08/16 13:14:50;;;;;;;;;1.00;1.00;;;;;;;;5080684;28;45387;-96
2023/08/16 13:17:57;;;;;;;;;;;;;;;;;;;;;
2023/08/16 13:20:45;;;;;;;;;0.00;0.00;;;;;;;;5064810;22;66918;-96
2023/08/16 13:23:22;;;;;;;;;1.00;1.00;;;;;;;;5048288;28;45600;-96
2023/08/16 13:25:53;;;;;;;;;1.33;1.33;;;;;;;;5043281;28;45513;-96
2023/08/16 13:28:27;;;;;;;;;1.00;1.00;;;;;;;;5054035;28;45477;-96
2023/08/16 13:30:57;;;;;;;;;1.33;1.33;;;;;;;;5050346;28;45228;-96
2023/08/16 13:33:23;;;;;;;;;1.00;1.00;;;;;;;;5050671;28;46592;-96
2023/08/16 13:44:39;;;;;;;;;;;;;;;;;;;;;
2023/08/16 13:47:23;;;;;;;;;1.33;1.33;;;;;;;;5002991;28;72324;-96
2023/08/16 13:53:11;;;;;;;;;2.00;2.00;;;;;;;;5017535;28;44920;-96
2023/08/16 13:56:27;;;;;;;;;;;;;;;;;;;;;
2023/08/16 13:58:54;;;;;;;;;2.00;2.00;;;;;;;;5020280;28;45273;-96
2023/08/16 14:01:27;;;;;;;;;1.33;1.33;;;;;;;;5010483;28;45499;-96
2023/08/16 14:04:06;;;;;;;;;1.00;1.00;;;;;;;;5023853;28;45299;-96
2023/08/16 14:07:03;;;;;;;;;1.33;1.33;;;;;;;;5022783;28;46874;-96
2023/08/16 14:09:42;;;;;;;;;;;;;;;;;;;;;
2023/08/16 14:12:28;;;;;;;;;;;;;;;;;;;;;
2023/08/16 14:18:43;;;;;;;;;;;;;;;;;;;;;
2023/08/16 14:24:54;;;;;;;;;;;;;;;;;;;;;
2023/08/16 14:27:51;;;;;;;;;;;;;;;;;;;;;
2023/08/16 14:30:47;;;;;;;;;;;;;;;;;;;;;
2023/08/16 14:33:35;;;;;;;;;2.00;2.00;;;;;;;;5017485;28;72831;-96
2023/08/16 14:39:00;;;;;;;;;;;;;;;;;;;;;
2023/08/16 14:41:56;;;;;;;;;1.00;1.00;;;;;;;;5021581;28;75615;-96
2023/08/16 14:44:21;;;;;;;;;1.00;1.00;;;;;;;;4994441;28;45352;-96
2023/08/16 14:47:08;;;;;;;;;1.33;1.33;;;;;;;;5000014;28;45419;-96
2023/08/16 14:50:10;;;;;;;;;;;;;;;;;;;;;
2023/08/16 14:52:48;;;;;;;;;;;;;;;;;;;;;
2023/08/16 14:55:29;;;;;;;;;1.67;1.67;;;;;;;;4998622;28;71286;-97
2023/08/16 14:58:21;;;;;;;;;1.00;1.00;;;;;;;;4992030;28;46269;-96
2023/08/16 15:00:46;;;;;;;;;2.00;2.00;;;;;;;;4991506;28;45535;-96
2023/08/16 15:03:31;;;;;;;;;2.00;2.00;;;;;;;;5000386;28;46775;-96
2023/08/16 15:06:10;;;;;;;;;;;;;;;;;;;;;
2023/08/16 15:11:48;;;;;;;;;2.33;2.33;;;;;;;;4982670;28;45580;-96
2023/08/16 15:14:20;;;;;;;;;1.33;1.33;;;;;;;;4976513;28;47332;-96
2023/08/16 15:16:51;;;;;;;;;2.00;2.00;;;;;;;;4991018;28;44891;-96
2023/08/16 15:19:41;;;;;;;;;;;;;;;;;;;;;
2023/08/16 15:25:29;;;;;;;;;2.00;2.00;;;;;;;;4995986;28;45700;-96
2023/08/16 15:28:24;;;;;;;;;;;;;;;;;;;;;
2023/08/16 15:31:24;;;;;;;;;4.00;2.33;;;;;;;;5000837;28;67567;-96
2023/08/16 15:34:13;;;;;;;;;3.00;3.00;;;;;;;;4979021;28;46157;-96
2023/08/16 15:37:01;;;;;;;;;3.00;3.00;;;;;;;;4971010;28;47185;-96
2023/08/16 15:42:25;;;;;;;;;2.33;2.33;;;;;;;;4962134;28;45585;-96
2023/08/16 15:47:41;;;;;;;;;3.00;3.00;;;;;;;;5020843;28;46058;-96
2023/08/16 15:50:09;;;;;;;;;3.00;3.00;;;;;;;;5025440;28;45247;-96
2023/08/16 15:52:37;;;;;;;;;3.67;3.67;;;;;;;;5015805;28;45350;-96
2023/08/16 15:55:06;;;;;;;;;2.00;2.00;;;;;;;;5016050;28;45348;-96
2023/08/16 15:57:49;;;;;;;;;2.00;2.00;;;;;;;;5021670;28;46749;-96
2023/08/16 16:00:18;;;;;;;;;3.00;3.00;;;;;;;;5010647;28;45497;-96
2023/08/16 16:03:10;;;;;;;;;4.00;4.00;;;;;;;;5026315;28;45245;-96
2023/08/16 16:05:39;;;;;;;;;1.00;1.00;;;;;;;;5042441;28;45606;-96
2023/08/16 16:08:47;;;;;;;;;;;;;;;;;;;;;
2023/08/16 16:11:25;;;;;;;;;1.00;1.00;;;;;;;;5033920;28;70935;-96
2023/08/16 16:14:03;;;;;;;;;;;;;;;;;;;;;
2023/08/16 16:16:54;;;;;;;;;1.00;1.00;;;;;;;;5043484;28;64870;-96
2023/08/16 16:19:22;;;;;;;;;2.00;2.00;;;;;;;;5023802;28;46815;-96
2023/08/16 16:22:10;;;;;;;;;3.00;3.00;;;;;;;;5035939;28;45156;-96
2023/08/16 16:24:45;;;;;;;;;;;;;;;;;;;;;
2023/08/16 16:27:27;;;;;;;;;2.00;2.00;;;;;;;;5036639;28;64438;-96
2023/08/16 16:30:17;;;;;;;;;2.00;2.00;;;;;;;;5014840;28;47481;-96
2023/08/16 16:36:03;;;;;;;;;3.00;3.00;;;;;;;;5026900;28;45319;-96
2023/08/16 16:38:38;;;;;;;;;2.00;2.00;;;;;;;;5010287;28;45226;-96
2023/08/16 16:41:09;;;;;;;;;2.33;2.33;;;;;;;;5009737;28;45398;-96
2023/08/16 16:43:43;;;;;;;;;3.00;3.00;;;;;;;;5022742;28;45393;-96
2023/08/16 16:46:31;;;;;;;;;3.00;3.00;;;;;;;;5029822;28;44709;-96
2023/08/16 16:48:59;;;;;;;;;1.00;1.00;;;;;;;;5020356;28;45437;-96
2023/08/16 16:51:38;;;;;;;;;;;;;;;;;;;;;
2023/08/16 16:54:32;;;;;;;;;3.00;3.00;;;;;;;;5025214;28;73248;-96
2023/08/16 16:57:01;;;;;;;;;3.00;3.00;;;;;;;;5012407;28;45335;-96
2023/08/16 16:59:28;;;;;;;;;2.00;2.00;;;;;;;;4996355;28;46809;-96
2023/08/16 17:02:17;;;;;;;;;1.00;1.00;;;;;;;;5021033;28;47610;-96
2023/08/16 17:05:23;;;;;;;;;4.00;2.33;;;;;;;;5026583;28;45316;-96
2023/08/16 17:07:53;;;;;;;;;3.00;3.00;;;;;;;;5023327;28;45465;-96
2023/08/16 17:10:29;;;;;;;;;1.00;1.00;;;;;;;;5016146;28;45274;-96
2023/08/16 17:13:16;;;;;;;;;2.00;2.00;;;;;;;;5008505;28;46726;-96
2023/08/16 17:15:42;;;;;;;;;3.00;3.00;;;;;;;;5012907;28;45504;-96
2023/08/16 17:18:17;;;;;;;;;3.00;3.00;;;;;;;;5287405;22;45910;-96
2023/08/16 17:23:17;;;;;;;;;3.00;3.00;;;;;;;;5069114;22;45409;-95
2023/08/16 17:25:58;;;;;;;;;2.33;2.33;;;;;;;;5279298;22;45597;-96
2023/08/16 17:28:23;;;;;;;;;3.67;3.67;;;;;;;;5084106;27;45270;-96
2023/08/16 17:30:48;;;;;;;;;3.00;3.00;;;;;;;;5055972;28;45564;-95
2023/08/16 17:33:14;;;;;;;;;2.33;2.33;;;;;;;;5034152;28;47437;-93
2023/08/16 17:35:41;;;;;;;;;3.00;3.00;;;;;;;;5039721;28;45903;-94
2023/08/16 17:38:06;;;;;;;;;2.33;2.33;;;;;;;;5053373;28;46831;-95
2023/08/16 17:40:31;;;;;;;;;2.33;2.33;;;;;;;;5057148;28;45401;-94
2023/08/16 17:42:57;;;;;;;;;4.00;4.00;;;;;;;;5054453;28;46370;-95
2023/08/16 17:45:22;;;;;;;;;3.33;3.33;;;;;;;;5053770;28;45527;-95
2023/08/16 17:47:47;;;;;;;;;4.00;4.00;;;;;;;;5054345;28;47138;-94
2023/08/16 17:50:12;;;;;;;;;3.00;3.00;;;;;;;;5039948;28;45557;-95
2023/08/16 17:52:38;;;;;;;;;3.00;3.00;;;;;;;;5062019;28;45486;-93
2023/08/16 17:55:03;;;;;;;;;3.00;3.00;;;;;;;;5063749;28;45538;-96
2023/08/16 17:57:29;;;;;;;;;3.33;3.33;;;;;;;;5060639;28;45520;-96
2023/08/16 17:59:54;;;;;;;;;4.00;4.00;;;;;;;;5054658;28;45147;-95
2023/08/16 18:02:20;;;;;;;;;3.67;3.67;;;;;;;;5056675;28;45659;-96
2023/08/16 18:04:48;;;;;;;;;2.67;2.67;;;;;;;;5062053;28;45395;-95
2023/08/16 18:07:14;;;;;;;;;1.00;1.00;;;;;;;;5073853;28;44840;-95
2023/08/16 18:09:39;;;;;;;;;2.67;2.67;;;;;;;;5060768;28;44983;-95
2023/08/16 18:12:04;;;;;;;;;3.67;3.67;;;;;;;;5055036;28;45519;-96
2023/08/16 18:14:42;;;;;;;;;;;;;;;;;;;;;
2023/08/16 18:17:11;;;;;;;;;3.67;3.67;;;;;;;;5052610;28;68855;-96
2023/08/16 18:19:36;;;;;;;;;4.00;4.00;;;;;;;;5056583;28;45517;-95
2023/08/16 18:22:04;;;;;;;;;2.00;2.00;;;;;;;;5039486;28;48585;-96
2023/08/16 18:24:31;;;;;;;;;2.00;2.00;;;;;;;;5036267;28;45517;-95
2023/08/16 18:26:56;;;;;;;;;3.00;3.00;;;;;;;;5053157;28;45550;-96
2023/08/16 18:29:22;;;;;;;;;4.33;4.33;;;;;;;;5070885;28;46892;-96
2023/08/16 18:31:47;;;;;;;;;4.33;4.33;;;;;;;;5047003;28;45394;-95
2023/08/16 18:34:15;;;;;;;;;4.00;4.00;;;;;;;;5072602;28;42801;-94
2023/08/16 18:36:40;;;;;;;;;3.67;3.67;;;;;;;;5069039;28;29880;-95
2023/08/16 18:39:05;;;;;;;;;3.00;3.00;;;;;;;;5075143;28;28574;-95
2023/08/16 18:41:34;;;;;;;;;5.00;5.00;;;;;;;;5076165;28;28390;-96
2023/08/16 18:44:03;;;;;;;;;4.00;4.00;;;;;;;;5063132;28;28959;-96
2023/08/16 18:46:30;;;;;;;;;4.67;4.67;;;;;;;;5075578;28;44800;-96
2023/08/16 18:48:56;;;;;;;;;4.00;4.00;;;;;;;;5043333;28;45301;-96
2023/08/16 18:51:21;;;;;;;;;3.33;3.33;;;;;;;;5090706;28;23700;-96
2023/08/16 18:53:49;;;;;;;;;2.00;2.00;;;;;;;;5086019;28;8900;-96
2023/08/16 18:56:15;;;;;;;;;5.25;4.00;;;;;;;;5095961;28;8810;-96
2023/08/16 18:58:50;;;;;;;;;4.00;4.00;;;;;;;;5079593;28;8835;-96
2023/08/16 19:08:07;;;;;;;;;6.00;6.00;;;;;;;;4993923;28;9051;-95
2023/08/16 19:10:41;;;;;;;;;4.75;4.75;;;;;;;;4986540;28;8825;-96
2023/08/16 19:13:07;;;;;;;;;6.75;6.75;;;;;;;;5068564;28;9712;-96
2023/08/16 19:15:35;;;;;;;;;4.33;4.33;;;;;;;;5077706;28;8861;-96
2023/08/16 19:18:00;;;;;;;;;5.00;5.00;;;;;;;;5077351;28;8803;-96
2023/08/16 19:20:28;;;;;;;;;4.00;4.00;;;;;;;;5082390;28;8823;-96
2023/08/16 19:22:53;;;;;;;;;5.50;5.50;;;;;;;;5077995;28;8808;-96
